Terminal Aerodrome Forecast
Issued by NWS

Home | Current Version | Previous Version | Text Only | Print | Product List | Glossary On
Versions: 1 2 3 4 5 6 7 8 9 10 11 12 13 14 15 16 17
000
FTAK31 PAJN 222300
TAFAKT
TAF
PAKT 222330Z 2300/2324 14010KT P6SM -SHRA SCT020 BKN030 OVC050
      TEMPO 2300/2303 14010G20KT BKN040 OVC060
     FM230900 16004KT 5SM -SHRA BR BCFG SCT015 OVC025
     FM231500 14005KT P6SM VCSH BKN040 OVC060
     FM232000 14005KT 6SM -SHRA BKN025 OVC040
      AMD LTD TO CLD VIS AND WIND 2306/2315=

USA.gov is the U.S. government's official web portal to all federal, state and local government web resources and services.